sensor_id;sensor_type;location;lat;lon;timestamp;temperature;humidity
22081;DHT22;11207;59.512;18.050;2022-12-07T00:01:14;-5.50;99.90
22081;DHT22;11207;59.512;18.050;2022-12-07T00:03:41;-5.50;99.90
22081;DHT22;11207;59.512;18.050;2022-12-07T00:06:10;-5.50;99.90
22081;DHT22;11207;59.512;18.050;2022-12-07T00:08:37;-5.50;99.90
22081;DHT22;11207;59.512;18.050;2022-12-07T00:11:04;-5.50;99.90
22081;DHT22;11207;59.512;18.050;2022-12-07T00:13:32;-5.40;99.90
22081;DHT22;11207;59.512;18.050;2022-12-07T00:16:09;-5.40;99.90
22081;DHT22;11207;59.512;18.050;2022-12-07T00:18:35;-5.40;99.90
22081;DHT22;11207;59.512;18.050;2022-12-07T00:21:06;-5.30;99.90
22081;DHT22;11207;59.512;18.050;2022-12-07T00:23:33;-5.40;99.90
22081;DHT22;11207;59.512;18.050;2022-12-07T00:26:14;-5.40;99.90
22081;DHT22;11207;59.512;18.050;2022-12-07T00:28:40;-5.30;99.90
22081;DHT22;11207;59.512;18.050;2022-12-07T00:31:09;-5.30;99.90
22081;DHT22;11207;59.512;18.050;2022-12-07T00:33:35;-5.30;99.90
22081;DHT22;11207;59.512;18.050;2022-12-07T00:36:03;-5.20;99.90
22081;DHT22;11207;59.512;18.050;2022-12-07T00:38:31;-5.30;99.90
22081;DHT22;11207;59.512;18.050;2022-12-07T00:40:58;-5.30;99.90
22081;DHT22;11207;59.512;18.050;2022-12-07T00:43:24;-5.30;99.90
22081;DHT22;11207;59.512;18.050;2022-12-07T00:45:50;-5.30;99.90
22081;DHT22;11207;59.512;18.050;2022-12-07T00:48:16;-5.30;99.90
22081;DHT22;11207;59.512;18.050;2022-12-07T00:50:41;-5.30;99.90
22081;DHT22;11207;59.512;18.050;2022-12-07T00:53:07;-5.40;99.90
22081;DHT22;11207;59.512;18.050;2022-12-07T00:55:33;-5.40;99.90
22081;DHT22;11207;59.512;18.050;2022-12-07T00:57:59;-5.30;99.90
22081;DHT22;11207;59.512;18.050;2022-12-07T01:00:25;-5.40;99.90
22081;DHT22;11207;59.512;18.050;2022-12-07T01:02:50;-5.40;99.90
22081;DHT22;11207;59.512;18.050;2022-12-07T01:05:16;-5.40;99.90
22081;DHT22;11207;59.512;18.050;2022-12-07T01:07:42;-5.40;99.90
22081;DHT22;11207;59.512;18.050;2022-12-07T01:10:07;-5.40;99.90
22081;DHT22;11207;59.512;18.050;2022-12-07T01:12:33;-5.50;99.90
22081;DHT22;11207;59.512;18.050;2022-12-07T01:14:59;-5.40;99.90
22081;DHT22;11207;59.512;18.050;2022-12-07T01:17:25;-5.50;99.90
22081;DHT22;11207;59.512;18.050;2022-12-07T01:19:53;-5.50;99.90
22081;DHT22;11207;59.512;18.050;2022-12-07T01:22:19;-5.50;99.90
22081;DHT22;11207;59.512;18.050;2022-12-07T01:24:45;-5.60;99.90
22081;DHT22;11207;59.512;18.050;2022-12-07T01:27:12;-5.60;99.90
22081;DHT22;11207;59.512;18.050;2022-12-07T01:29:38;-5.60;99.90
22081;DHT22;11207;59.512;18.050;2022-12-07T01:32:04;-5.60;99.90
22081;DHT22;11207;59.512;18.050;2022-12-07T01:34:30;-5.60;99.90
22081;DHT22;11207;59.512;18.050;2022-12-07T01:36:55;-5.60;99.90
22081;DHT22;11207;59.512;18.050;2022-12-07T01:39:21;-5.60;99.90
22081;DHT22;11207;59.512;18.050;2022-12-07T01:41:47;-5.60;99.90
22081;DHT22;11207;59.512;18.050;2022-12-07T01:44:26;-5.70;99.90
22081;DHT22;11207;59.512;18.050;2022-12-07T01:46:52;-5.60;99.90
22081;DHT22;11207;59.512;18.050;2022-12-07T01:49:26;-5.70;99.90
22081;DHT22;11207;59.512;18.050;2022-12-07T01:52:03;-5.70;99.90
22081;DHT22;11207;59.512;18.050;2022-12-07T01:54:33;-5.80;99.90
22081;DHT22;11207;59.512;18.050;2022-12-07T01:56:59;-5.80;99.90
22081;DHT22;11207;59.512;18.050;2022-12-07T01:59:25;-5.80;99.90
22081;DHT22;11207;59.512;18.050;2022-12-07T02:01:53;-5.80;99.90
22081;DHT22;11207;59.512;18.050;2022-12-07T02:04:19;-5.80;99.90
22081;DHT22;11207;59.512;18.050;2022-12-07T02:06:46;-5.80;99.90
22081;DHT22;11207;59.512;18.050;2022-12-07T02:09:12;-5.80;99.90
22081;DHT22;11207;59.512;18.050;2022-12-07T02:11:39;-5.80;99.90
22081;DHT22;11207;59.512;18.050;2022-12-07T02:14:06;-5.80;99.90
22081;DHT22;11207;59.512;18.050;2022-12-07T02:16:34;-5.80;99.90
22081;DHT22;11207;59.512;18.050;2022-12-07T02:22:17;-5.80;99.90
22081;DHT22;11207;59.512;18.050;2022-12-07T02:24:58;-5.70;99.90
22081;DHT22;11207;59.512;18.050;2022-12-07T02:30:13;-5.80;99.90
22081;DHT22;11207;59.512;18.050;2022-12-07T02:35:48;-5.80;99.90
22081;DHT22;11207;59.512;18.050;2022-12-07T02:38:23;-5.80;99.90
22081;DHT22;11207;59.512;18.050;2022-12-07T02:41:16;-5.80;99.90
22081;DHT22;11207;59.512;18.050;2022-12-07T02:43:46;-5.90;99.90
22081;DHT22;11207;59.512;18.050;2022-12-07T02:46:29;-5.90;99.90
22081;DHT22;11207;59.512;18.050;2022-12-07T02:48:56;-5.90;99.90
22081;DHT22;11207;59.512;18.050;2022-12-07T02:51:25;-5.90;99.90
22081;DHT22;11207;59.512;18.050;2022-12-07T02:53:51;-5.90;99.90
22081;DHT22;11207;59.512;18.050;2022-12-07T02:56:26;-6.00;99.90
22081;DHT22;11207;59.512;18.050;2022-12-07T03:01:33;-5.90;99.90
22081;DHT22;11207;59.512;18.050;2022-12-07T03:06:53;-6.00;99.90
22081;DHT22;11207;59.512;18.050;2022-12-07T03:09:35;-6.00;99.90
22081;DHT22;11207;59.512;18.050;2022-12-07T03:12:09;-6.00;99.90
22081;DHT22;11207;59.512;18.050;2022-12-07T03:14:43;-6.00;99.90
22081;DHT22;11207;59.512;18.050;2022-12-07T03:17:23;-6.00;99.90
22081;DHT22;11207;59.512;18.050;2022-12-07T03:19:51;-6.00;99.90
22081;DHT22;11207;59.512;18.050;2022-12-07T03:22:21;-6.00;99.90
22081;DHT22;11207;59.512;18.050;2022-12-07T03:24:59;-6.00;99.90
22081;DHT22;11207;59.512;18.050;2022-12-07T03:27:30;-6.10;99.90
22081;DHT22;11207;59.512;18.050;2022-12-07T03:35:41;-6.00;99.90
22081;DHT22;11207;59.512;18.050;2022-12-07T03:38:25;-6.00;99.90
22081;DHT22;11207;59.512;18.050;2022-12-07T03:41:09;-6.10;99.90
22081;DHT22;11207;59.512;18.050;2022-12-07T03:43:37;-6.00;99.90
22081;DHT22;11207;59.512;18.050;2022-12-07T03:46:17;-6.00;99.90
22081;DHT22;11207;59.512;18.050;2022-12-07T03:49:02;-6.00;99.90
22081;DHT22;11207;59.512;18.050;2022-12-07T03:54:41;-6.00;99.90
22081;DHT22;11207;59.512;18.050;2022-12-07T03:57:10;-6.00;99.90
22081;DHT22;11207;59.512;18.050;2022-12-07T03:59:37;-6.00;99.90
22081;DHT22;11207;59.512;18.050;2022-12-07T04:02:06;-6.00;99.90
22081;DHT22;11207;59.512;18.050;2022-12-07T04:04:32;-6.00;99.90
22081;DHT22;11207;59.512;18.050;2022-12-07T04:06:59;-6.00;99.90
22081;DHT22;11207;59.512;18.050;2022-12-07T04:09:25;-6.00;99.90
22081;DHT22;11207;59.512;18.050;2022-12-07T04:11:53;-6.00;99.90
22081;DHT22;11207;59.512;18.050;2022-12-07T04:14:19;-6.00;99.90
22081;DHT22;11207;59.512;18.050;2022-12-07T04:16:56;-6.00;99.90
22081;DHT22;11207;59.512;18.050;2022-12-07T04:19:24;-6.00;99.90
22081;DHT22;11207;59.512;18.050;2022-12-07T04:21:53;-6.00;99.90
22081;DHT22;11207;59.512;18.050;2022-12-07T04:24:19;-6.00;99.90
22081;DHT22;11207;59.512;18.050;2022-12-07T04:26:45;-6.00;99.90
22081;DHT22;11207;59.512;18.050;2022-12-07T04:29:11;-5.90;99.90
22081;DHT22;11207;59.512;18.050;2022-12-07T04:31:38;-5.90;99.90
22081;DHT22;11207;59.512;18.050;2022-12-07T04:34:04;-5.90;99.90
22081;DHT22;11207;59.512;18.050;2022-12-07T04:36:30;-5.90;99.90
22081;DHT22;11207;59.512;18.050;2022-12-07T04:38:56;-5.90;99.90
22081;DHT22;11207;59.512;18.050;2022-12-07T04:41:23;-5.90;99.90
22081;DHT22;11207;59.512;18.050;2022-12-07T04:44:03;-5.80;99.90
22081;DHT22;11207;59.512;18.050;2022-12-07T04:46:31;-5.90;99.90
22081;DHT22;11207;59.512;18.050;2022-12-07T04:48:57;-5.90;99.90
22081;DHT22;11207;59.512;18.050;2022-12-07T04:51:25;-5.90;99.90
22081;DHT22;11207;59.512;18.050;2022-12-07T04:53:52;-5.90;99.90
22081;DHT22;11207;59.512;18.050;2022-12-07T04:56:18;-5.90;99.90
22081;DHT22;11207;59.512;18.050;2022-12-07T04:58:45;-5.90;99.90
22081;DHT22;11207;59.512;18.050;2022-12-07T05:01:12;-5.90;99.90
22081;DHT22;11207;59.512;18.050;2022-12-07T05:03:38;-5.90;99.90
22081;DHT22;11207;59.512;18.050;2022-12-07T05:06:04;-5.80;99.90
22081;DHT22;11207;59.512;18.050;2022-12-07T05:08:31;-5.90;99.90
22081;DHT22;11207;59.512;18.050;2022-12-07T05:10:59;-5.90;99.90
22081;DHT22;11207;59.512;18.050;2022-12-07T05:13:25;-5.80;99.90
22081;DHT22;11207;59.512;18.050;2022-12-07T05:15:51;-5.80;99.90
22081;DHT22;11207;59.512;18.050;2022-12-07T05:18:16;-5.80;99.90
22081;DHT22;11207;59.512;18.050;2022-12-07T05:20:43;-5.80;99.90
22081;DHT22;11207;59.512;18.050;2022-12-07T05:23:09;-5.80;99.90
22081;DHT22;11207;59.512;18.050;2022-12-07T05:25:35;-5.80;99.90
22081;DHT22;11207;59.512;18.050;2022-12-07T05:28:01;-5.80;99.90
22081;DHT22;11207;59.512;18.050;2022-12-07T05:30:27;-5.80;99.90
22081;DHT22;11207;59.512;18.050;2022-12-07T05:32:53;-5.90;99.90
22081;DHT22;11207;59.512;18.050;2022-12-07T05:35:19;-5.80;99.90
22081;DHT22;11207;59.512;18.050;2022-12-07T05:37:45;-5.80;99.90
22081;DHT22;11207;59.512;18.050;2022-12-07T05:40:12;-5.90;99.90
22081;DHT22;11207;59.512;18.050;2022-12-07T05:42:39;-5.80;99.90
22081;DHT22;11207;59.512;18.050;2022-12-07T05:45:05;-5.80;99.90
22081;DHT22;11207;59.512;18.050;2022-12-07T05:47:31;-5.90;99.90
22081;DHT22;11207;59.512;18.050;2022-12-07T05:49:57;-5.90;99.90
22081;DHT22;11207;59.512;18.050;2022-12-07T05:52:23;-5.90;99.90
22081;DHT22;11207;59.512;18.050;2022-12-07T05:54:54;-5.80;99.90
22081;DHT22;11207;59.512;18.050;2022-12-07T05:57:19;-5.90;99.90
22081;DHT22;11207;59.512;18.050;2022-12-07T05:59:45;-5.90;99.90
22081;DHT22;11207;59.512;18.050;2022-12-07T06:02:13;-5.90;99.90
22081;DHT22;11207;59.512;18.050;2022-12-07T06:04:41;-5.90;99.90
22081;DHT22;11207;59.512;18.050;2022-12-07T06:07:08;-6.00;99.90
22081;DHT22;11207;59.512;18.050;2022-12-07T06:09:34;-6.00;99.90
22081;DHT22;11207;59.512;18.050;2022-12-07T06:12:00;-6.00;99.90
22081;DHT22;11207;59.512;18.050;2022-12-07T06:14:45;-6.00;99.90
22081;DHT22;11207;59.512;18.050;2022-12-07T06:17:11;-6.00;99.90
22081;DHT22;11207;59.512;18.050;2022-12-07T06:19:38;-6.10;99.90
22081;DHT22;11207;59.512;18.050;2022-12-07T06:22:04;-6.00;99.90
22081;DHT22;11207;59.512;18.050;2022-12-07T06:24:31;-6.10;99.90
22081;DHT22;11207;59.512;18.050;2022-12-07T06:26:57;-6.00;99.90
22081;DHT22;11207;59.512;18.050;2022-12-07T06:29:23;-6.10;99.90
22081;DHT22;11207;59.512;18.050;2022-12-07T06:31:48;-6.10;99.90
22081;DHT22;11207;59.512;18.050;2022-12-07T06:34:17;-6.20;99.90
22081;DHT22;11207;59.512;18.050;2022-12-07T06:36:43;-6.20;99.90
22081;DHT22;11207;59.512;18.050;2022-12-07T06:39:09;-6.20;99.90
22081;DHT22;11207;59.512;18.050;2022-12-07T06:41:37;-6.20;99.90
22081;DHT22;11207;59.512;18.050;2022-12-07T06:44:06;-6.20;99.90
22081;DHT22;11207;59.512;18.050;2022-12-07T06:46:32;-6.20;99.90
22081;DHT22;11207;59.512;18.050;2022-12-07T06:48:58;-6.20;99.90
22081;DHT22;11207;59.512;18.050;2022-12-07T06:51:23;-6.20;99.90
22081;DHT22;11207;59.512;18.050;2022-12-07T06:53:49;-6.30;99.90
22081;DHT22;11207;59.512;18.050;2022-12-07T06:56:15;-6.30;99.90
22081;DHT22;11207;59.512;18.050;2022-12-07T06:58:41;-6.30;99.90
22081;DHT22;11207;59.512;18.050;2022-12-07T07:01:12;-6.30;99.90
22081;DHT22;11207;59.512;18.050;2022-12-07T07:03:37;-6.30;99.90
22081;DHT22;11207;59.512;18.050;2022-12-07T07:06:04;-6.30;99.90
22081;DHT22;11207;59.512;18.050;2022-12-07T07:08:30;-6.30;99.90
22081;DHT22;11207;59.512;18.050;2022-12-07T07:10:56;-6.30;99.90
22081;DHT22;11207;59.512;18.050;2022-12-07T07:13:21;-6.30;99.90
22081;DHT22;11207;59.512;18.050;2022-12-07T07:15:47;-6.30;99.90
22081;DHT22;11207;59.512;18.050;2022-12-07T07:18:12;-6.30;99.90
22081;DHT22;11207;59.512;18.050;2022-12-07T07:20:39;-6.30;99.90
22081;DHT22;11207;59.512;18.050;2022-12-07T07:23:05;-6.30;99.90
22081;DHT22;11207;59.512;18.050;2022-12-07T07:25:31;-6.30;99.90
22081;DHT22;11207;59.512;18.050;2022-12-07T07:27:57;-6.30;99.90
22081;DHT22;11207;59.512;18.050;2022-12-07T07:30:23;-6.20;99.90
22081;DHT22;11207;59.512;18.050;2022-12-07T07:32:49;-6.20;99.90
22081;DHT22;11207;59.512;18.050;2022-12-07T07:35:15;-6.20;99.90
22081;DHT22;11207;59.512;18.050;2022-12-07T07:37:41;-6.30;99.90
22081;DHT22;11207;59.512;18.050;2022-12-07T07:40:08;-6.30;99.90
22081;DHT22;11207;59.512;18.050;2022-12-07T07:42:34;-6.30;99.90
22081;DHT22;11207;59.512;18.050;2022-12-07T07:44:59;-6.30;99.90
22081;DHT22;11207;59.512;18.050;2022-12-07T07:47:25;-6.30;99.90
22081;DHT22;11207;59.512;18.050;2022-12-07T07:49:53;-6.30;99.90
22081;DHT22;11207;59.512;18.050;2022-12-07T07:52:18;-6.20;99.90
22081;DHT22;11207;59.512;18.050;2022-12-07T07:54:44;-6.20;99.90
22081;DHT22;11207;59.512;18.050;2022-12-07T07:57:10;-6.20;99.90
22081;DHT22;11207;59.512;18.050;2022-12-07T07:59:35;-6.20;99.90
22081;DHT22;11207;59.512;18.050;2022-12-07T08:02:01;-6.20;99.90
22081;DHT22;11207;59.512;18.050;2022-12-07T08:04:26;-6.20;99.90
22081;DHT22;11207;59.512;18.050;2022-12-07T08:06:52;-6.20;99.90
22081;DHT22;11207;59.512;18.050;2022-12-07T08:09:18;-6.20;99.90
22081;DHT22;11207;59.512;18.050;2022-12-07T08:11:43;-6.20;99.90
22081;DHT22;11207;59.512;18.050;2022-12-07T08:14:10;-6.10;99.90
22081;DHT22;11207;59.512;18.050;2022-12-07T08:16:37;-6.20;99.90
22081;DHT22;11207;59.512;18.050;2022-12-07T08:19:04;-6.20;99.90
22081;DHT22;11207;59.512;18.050;2022-12-07T08:21:30;-6.20;99.90
22081;DHT22;11207;59.512;18.050;2022-12-07T08:23:57;-6.20;99.90
22081;DHT22;11207;59.512;18.050;2022-12-07T08:26:22;-6.20;99.90
22081;DHT22;11207;59.512;18.050;2022-12-07T08:28:48;-6.20;99.90
22081;DHT22;11207;59.512;18.050;2022-12-07T08:31:17;-6.20;99.90
22081;DHT22;11207;59.512;18.050;2022-12-07T08:33:48;-6.20;99.90
22081;DHT22;11207;59.512;18.050;2022-12-07T08:36:14;-6.20;99.90
22081;DHT22;11207;59.512;18.050;2022-12-07T08:38:41;-6.20;99.90
22081;DHT22;11207;59.512;18.050;2022-12-07T08:41:07;-6.20;99.90
22081;DHT22;11207;59.512;18.050;2022-12-07T08:43:33;-6.10;99.90
22081;DHT22;11207;59.512;18.050;2022-12-07T08:48:28;-6.10;99.90
22081;DHT22;11207;59.512;18.050;2022-12-07T08:50:53;-6.10;99.90
22081;DHT22;11207;59.512;18.050;2022-12-07T08:53:19;-6.10;99.90
22081;DHT22;11207;59.512;18.050;2022-12-07T08:55:46;-6.10;99.90
22081;DHT22;11207;59.512;18.050;2022-12-07T08:58:12;-6.20;99.90
22081;DHT22;11207;59.512;18.050;2022-12-07T09:00:37;-6.10;99.90
22081;DHT22;11207;59.512;18.050;2022-12-07T09:03:03;-6.10;99.90
22081;DHT22;11207;59.512;18.050;2022-12-07T09:05:28;-6.10;99.90
22081;DHT22;11207;59.512;18.050;2022-12-07T09:07:56;-6.10;99.90
22081;DHT22;11207;59.512;18.050;2022-12-07T09:10:23;-6.10;99.90
22081;DHT22;11207;59.512;18.050;2022-12-07T09:12:49;-6.10;99.90
22081;DHT22;11207;59.512;18.050;2022-12-07T09:15:14;-6.10;99.90
22081;DHT22;11207;59.512;18.050;2022-12-07T09:17:40;-6.00;99.90
22081;DHT22;11207;59.512;18.050;2022-12-07T09:20:06;-6.10;99.90
22081;DHT22;11207;59.512;18.050;2022-12-07T09:22:32;-6.10;99.90
22081;DHT22;11207;59.512;18.050;2022-12-07T09:24:58;-6.00;99.90
22081;DHT22;11207;59.512;18.050;2022-12-07T09:27:24;-6.10;99.90
22081;DHT22;11207;59.512;18.050;2022-12-07T09:29:52;-6.00;99.90
22081;DHT22;11207;59.512;18.050;2022-12-07T09:32:18;-6.00;99.90
22081;DHT22;11207;59.512;18.050;2022-12-07T09:34:43;-6.00;99.90
22081;DHT22;11207;59.512;18.050;2022-12-07T09:37:09;-6.00;99.90
22081;DHT22;11207;59.512;18.050;2022-12-07T09:39:38;-6.00;99.90
22081;DHT22;11207;59.512;18.050;2022-12-07T09:42:05;-6.00;99.90
22081;DHT22;11207;59.512;18.050;2022-12-07T09:44:31;-6.00;99.90
22081;DHT22;11207;59.512;18.050;2022-12-07T09:46:57;-6.00;99.90
22081;DHT22;11207;59.512;18.050;2022-12-07T09:49:28;-6.00;99.90
22081;DHT22;11207;59.512;18.050;2022-12-07T09:52:25;-6.00;99.90
22081;DHT22;11207;59.512;18.050;2022-12-07T09:54:52;-5.90;99.90
22081;DHT22;11207;59.512;18.050;2022-12-07T09:57:49;-5.90;99.90
22081;DHT22;11207;59.512;18.050;2022-12-07T10:00:19;-5.90;99.90
22081;DHT22;11207;59.512;18.050;2022-12-07T10:02:51;-5.80;99.90
22081;DHT22;11207;59.512;18.050;2022-12-07T10:05:24;-5.80;99.90
22081;DHT22;11207;59.512;18.050;2022-12-07T10:07:54;-5.80;99.90
22081;DHT22;11207;59.512;18.050;2022-12-07T10:10:34;-5.70;99.90
22081;DHT22;11207;59.512;18.050;2022-12-07T10:13:09;-5.70;99.90
22081;DHT22;11207;59.512;18.050;2022-12-07T10:18:32;-5.70;99.90
22081;DHT22;11207;59.512;18.050;2022-12-07T10:23:36;-5.50;99.90
22081;DHT22;11207;59.512;18.050;2022-12-07T10:26:20;-5.50;99.90
22081;DHT22;11207;59.512;18.050;2022-12-07T10:28:47;-5.50;99.90
22081;DHT22;11207;59.512;18.050;2022-12-07T10:31:19;-5.50;99.90
22081;DHT22;11207;59.512;18.050;2022-12-07T10:33:53;-5.50;99.90
22081;DHT22;11207;59.512;18.050;2022-12-07T10:38:53;-5.30;99.90
22081;DHT22;11207;59.512;18.050;2022-12-07T10:41:23;-5.30;99.90
22081;DHT22;11207;59.512;18.050;2022-12-07T10:43:52;-5.30;99.90
22081;DHT22;11207;59.512;18.050;2022-12-07T10:49:38;-5.30;99.90
22081;DHT22;11207;59.512;18.050;2022-12-07T10:57:53;-5.10;99.90
22081;DHT22;11207;59.512;18.050;2022-12-07T11:00:23;-5.20;99.90
22081;DHT22;11207;59.512;18.050;2022-12-07T11:03:17;-5.20;99.90
22081;DHT22;11207;59.512;18.050;2022-12-07T11:06:13;-5.20;99.90
22081;DHT22;11207;59.512;18.050;2022-12-07T11:19:59;-5.10;99.90
22081;DHT22;11207;59.512;18.050;2022-12-07T11:25:26;-5.10;99.90
22081;DHT22;11207;59.512;18.050;2022-12-07T11:33:45;-5.00;99.90
22081;DHT22;11207;59.512;18.050;2022-12-07T11:36:30;-5.00;99.90
22081;DHT22;11207;59.512;18.050;2022-12-07T11:39:00;-4.90;99.90
22081;DHT22;11207;59.512;18.050;2022-12-07T11:41:35;-4.90;99.90
22081;DHT22;11207;59.512;18.050;2022-12-07T11:44:27;-4.90;99.90
22081;DHT22;11207;59.512;18.050;2022-12-07T11:47:05;-4.90;99.90
22081;DHT22;11207;59.512;18.050;2022-12-07T11:49:56;-4.80;99.90
22081;DHT22;11207;59.512;18.050;2022-12-07T11:52:56;-4.80;99.90
22081;DHT22;11207;59.512;18.050;2022-12-07T12:01:01;-4.80;99.90
22081;DHT22;11207;59.512;18.050;2022-12-07T12:03:35;-4.70;99.90
22081;DHT22;11207;59.512;18.050;2022-12-07T12:06:02;-4.70;99.90
22081;DHT22;11207;59.512;18.050;2022-12-07T12:08:32;-4.70;99.90
22081;DHT22;11207;59.512;18.050;2022-12-07T12:14:02;-4.70;99.90
22081;DHT22;11207;59.512;18.050;2022-12-07T12:22:39;-4.70;99.90
22081;DHT22;11207;59.512;18.050;2022-12-07T12:25:14;-4.60;99.90
22081;DHT22;11207;59.512;18.050;2022-12-07T12:27:47;-4.70;99.90
22081;DHT22;11207;59.512;18.050;2022-12-07T12:30:36;-4.70;99.90
22081;DHT22;11207;59.512;18.050;2022-12-07T12:33:24;-4.60;99.90
22081;DHT22;11207;59.512;18.050;2022-12-07T12:44:00;-4.60;99.90
22081;DHT22;11207;59.512;18.050;2022-12-07T12:54:29;-4.40;99.90
22081;DHT22;11207;59.512;18.050;2022-12-07T12:56:59;-4.50;99.90
22081;DHT22;11207;59.512;18.050;2022-12-07T12:59:36;-4.50;99.90
22081;DHT22;11207;59.512;18.050;2022-12-07T13:02:24;-4.50;99.90
22081;DHT22;11207;59.512;18.050;2022-12-07T13:15:43;-4.50;99.90
22081;DHT22;11207;59.512;18.050;2022-12-07T13:23:08;-4.50;99.90
22081;DHT22;11207;59.512;18.050;2022-12-07T13:25:41;-4.60;99.90
22081;DHT22;11207;59.512;18.050;2022-12-07T13:28:18;-4.50;99.90
22081;DHT22;11207;59.512;18.050;2022-12-07T13:30:58;-4.50;99.90
22081;DHT22;11207;59.512;18.050;2022-12-07T13:33:27;-4.60;99.90
22081;DHT22;11207;59.512;18.050;2022-12-07T13:35:54;-4.50;99.90
22081;DHT22;11207;59.512;18.050;2022-12-07T13:38:29;-4.60;99.90
22081;DHT22;11207;59.512;18.050;2022-12-07T13:41:15;-4.60;99.90
22081;DHT22;11207;59.512;18.050;2022-12-07T13:44:03;-4.60;99.90
22081;DHT22;11207;59.512;18.050;2022-12-07T13:49:27;-4.70;99.90
22081;DHT22;11207;59.512;18.050;2022-12-07T13:51:54;-4.70;99.90
22081;DHT22;11207;59.512;18.050;2022-12-07T13:54:21;-4.70;99.90
22081;DHT22;11207;59.512;18.050;2022-12-07T13:56:51;-4.80;99.90
22081;DHT22;11207;59.512;18.050;2022-12-07T13:59:20;-4.80;99.90
22081;DHT22;11207;59.512;18.050;2022-12-07T14:01:48;-4.80;99.90
22081;DHT22;11207;59.512;18.050;2022-12-07T14:04:34;-4.80;99.90
22081;DHT22;11207;59.512;18.050;2022-12-07T14:07:00;-4.80;99.90
22081;DHT22;11207;59.512;18.050;2022-12-07T14:09:28;-4.70;99.90
22081;DHT22;11207;59.512;18.050;2022-12-07T14:11:56;-4.80;99.90
22081;DHT22;11207;59.512;18.050;2022-12-07T14:14:30;-4.80;99.90
22081;DHT22;11207;59.512;18.050;2022-12-07T14:17:09;-4.90;99.90
22081;DHT22;11207;59.512;18.050;2022-12-07T14:19:49;-4.80;99.90
22081;DHT22;11207;59.512;18.050;2022-12-07T14:22:34;-4.80;99.90
22081;DHT22;11207;59.512;18.050;2022-12-07T14:28:01;-4.90;99.90
22081;DHT22;11207;59.512;18.050;2022-12-07T14:30:29;-4.90;99.90
22081;DHT22;11207;59.512;18.050;2022-12-07T14:32:59;-4.90;99.90
22081;DHT22;11207;59.512;18.050;2022-12-07T14:35:26;-4.90;99.90
22081;DHT22;11207;59.512;18.050;2022-12-07T14:37:52;-4.90;99.90
22081;DHT22;11207;59.512;18.050;2022-12-07T14:40:23;-4.90;99.90
22081;DHT22;11207;59.512;18.050;2022-12-07T14:43:10;-4.90;99.90
22081;DHT22;11207;59.512;18.050;2022-12-07T14:45:37;-5.00;99.90
22081;DHT22;11207;59.512;18.050;2022-12-07T14:48:05;-5.00;99.90
22081;DHT22;11207;59.512;18.050;2022-12-07T14:50:35;-5.10;99.90
22081;DHT22;11207;59.512;18.050;2022-12-07T14:53:07;-5.10;99.90
22081;DHT22;11207;59.512;18.050;2022-12-07T14:55:34;-5.10;99.90
22081;DHT22;11207;59.512;18.050;2022-12-07T14:58:00;-5.10;99.90
22081;DHT22;11207;59.512;18.050;2022-12-07T15:00:28;-5.10;99.90
22081;DHT22;11207;59.512;18.050;2022-12-07T15:02:54;-5.20;99.90
22081;DHT22;11207;59.512;18.050;2022-12-07T15:05:20;-5.20;99.90
22081;DHT22;11207;59.512;18.050;2022-12-07T15:07:47;-5.10;99.90
22081;DHT22;11207;59.512;18.050;2022-12-07T15:10:22;-5.20;99.90
22081;DHT22;11207;59.512;18.050;2022-12-07T15:12:48;-5.20;99.90
22081;DHT22;11207;59.512;18.050;2022-12-07T15:15:14;-5.20;99.90
22081;DHT22;11207;59.512;18.050;2022-12-07T15:17:41;-5.20;99.90
22081;DHT22;11207;59.512;18.050;2022-12-07T15:20:14;-5.20;99.90
22081;DHT22;11207;59.512;18.050;2022-12-07T15:22:41;-5.20;99.90
22081;DHT22;11207;59.512;18.050;2022-12-07T15:25:07;-5.20;99.90
22081;DHT22;11207;59.512;18.050;2022-12-07T15:27:34;-5.30;99.90
22081;DHT22;11207;59.512;18.050;2022-12-07T15:29:59;-5.30;99.90
22081;DHT22;11207;59.512;18.050;2022-12-07T15:32:25;-5.30;99.90
22081;DHT22;11207;59.512;18.050;2022-12-07T15:34:53;-5.30;99.90
22081;DHT22;11207;59.512;18.050;2022-12-07T15:37:19;-5.30;99.90
22081;DHT22;11207;59.512;18.050;2022-12-07T15:39:45;-5.40;99.90
22081;DHT22;11207;59.512;18.050;2022-12-07T15:42:10;-5.20;99.90
22081;DHT22;11207;59.512;18.050;2022-12-07T15:44:36;-5.30;99.90
22081;DHT22;11207;59.512;18.050;2022-12-07T15:47:20;-5.30;99.90
22081;DHT22;11207;59.512;18.050;2022-12-07T15:49:46;-5.40;99.90
22081;DHT22;11207;59.512;18.050;2022-12-07T15:52:12;-5.30;99.90
22081;DHT22;11207;59.512;18.050;2022-12-07T15:54:38;-5.30;99.90
22081;DHT22;11207;59.512;18.050;2022-12-07T15:57:04;-5.40;99.90
22081;DHT22;11207;59.512;18.050;2022-12-07T15:59:29;-5.50;99.90
22081;DHT22;11207;59.512;18.050;2022-12-07T16:01:55;-5.40;99.90
22081;DHT22;11207;59.512;18.050;2022-12-07T16:04:21;-5.50;99.90
22081;DHT22;11207;59.512;18.050;2022-12-07T16:06:47;-5.50;99.90
22081;DHT22;11207;59.512;18.050;2022-12-07T16:09:12;-5.60;99.90
22081;DHT22;11207;59.512;18.050;2022-12-07T16:11:38;-5.60;99.90
22081;DHT22;11207;59.512;18.050;2022-12-07T16:14:04;-5.70;99.90
22081;DHT22;11207;59.512;18.050;2022-12-07T16:16:30;-5.60;99.90
22081;DHT22;11207;59.512;18.050;2022-12-07T16:18:56;-5.70;99.90
22081;DHT22;11207;59.512;18.050;2022-12-07T16:21:22;-5.70;99.90
22081;DHT22;11207;59.512;18.050;2022-12-07T16:23:48;-5.80;99.90
22081;DHT22;11207;59.512;18.050;2022-12-07T16:26:16;-5.70;99.90
22081;DHT22;11207;59.512;18.050;2022-12-07T16:28:43;-5.70;99.90
22081;DHT22;11207;59.512;18.050;2022-12-07T16:31:14;-5.70;99.90
22081;DHT22;11207;59.512;18.050;2022-12-07T16:33:42;-5.70;99.90
22081;DHT22;11207;59.512;18.050;2022-12-07T16:36:09;-5.70;99.90
22081;DHT22;11207;59.512;18.050;2022-12-07T16:38:36;-5.70;99.90
22081;DHT22;11207;59.512;18.050;2022-12-07T16:41:02;-5.80;99.90
22081;DHT22;11207;59.512;18.050;2022-12-07T16:43:28;-5.80;99.90
22081;DHT22;11207;59.512;18.050;2022-12-07T16:45:54;-5.80;99.90
22081;DHT22;11207;59.512;18.050;2022-12-07T16:48:20;-5.80;99.90
22081;DHT22;11207;59.512;18.050;2022-12-07T16:50:46;-5.80;99.90
22081;DHT22;11207;59.512;18.050;2022-12-07T16:53:13;-5.80;99.90
22081;DHT22;11207;59.512;18.050;2022-12-07T16:55:42;-5.80;99.90
22081;DHT22;11207;59.512;18.050;2022-12-07T16:58:08;-5.70;99.90
22081;DHT22;11207;59.512;18.050;2022-12-07T17:00:34;-5.90;99.90
22081;DHT22;11207;59.512;18.050;2022-12-07T17:03:00;-5.80;99.90
22081;DHT22;11207;59.512;18.050;2022-12-07T17:05:26;-5.80;99.90
22081;DHT22;11207;59.512;18.050;2022-12-07T17:07:53;-5.80;99.90
22081;DHT22;11207;59.512;18.050;2022-12-07T17:10:19;-5.80;99.90
22081;DHT22;11207;59.512;18.050;2022-12-07T17:16:04;-5.90;99.90
22081;DHT22;11207;59.512;18.050;2022-12-07T17:18:32;-5.90;99.90
22081;DHT22;11207;59.512;18.050;2022-12-07T17:21:07;-5.90;99.90
22081;DHT22;11207;59.512;18.050;2022-12-07T17:23:35;-6.00;99.90
22081;DHT22;11207;59.512;18.050;2022-12-07T17:26:28;-5.90;99.90